sensor_id;sensor_type;location;lat;lon;timestamp;P1;durP1;ratioP1;P2;durP2;ratioP2
73023;SDS011;61199;47.526;8.538;2023-03-23T00:00:46;8.90;;;3.53;;
73023;SDS011;61199;47.526;8.538;2023-03-23T00:03:11;5.43;;;3.17;;
73023;SDS011;61199;47.526;8.538;2023-03-23T00:05:38;8.27;;;4.17;;
73023;SDS011;61199;47.526;8.538;2023-03-23T00:08:06;5.00;;;3.70;;
73023;SDS011;61199;47.526;8.538;2023-03-23T00:10:34;4.80;;;3.27;;
73023;SDS011;61199;47.526;8.538;2023-03-23T00:13:00;10.30;;;4.60;;
73023;SDS011;61199;47.526;8.538;2023-03-23T00:15:27;14.40;;;3.90;;
73023;SDS011;61199;47.526;8.538;2023-03-23T00:17:58;7.13;;;3.73;;
73023;SDS011;61199;47.526;8.538;2023-03-23T00:20:30;5.23;;;3.70;;
73023;SDS011;61199;47.526;8.538;2023-03-23T00:23:04;7.60;;;4.17;;
73023;SDS011;61199;47.526;8.538;2023-03-23T00:25:31;9.70;;;4.53;;
73023;SDS011;61199;47.526;8.538;2023-03-23T00:27:57;8.30;;;4.30;;
73023;SDS011;61199;47.526;8.538;2023-03-23T00:30:23;7.17;;;4.30;;
73023;SDS011;61199;47.526;8.538;2023-03-23T00:32:48;6.93;;;4.07;;
73023;SDS011;61199;47.526;8.538;2023-03-23T00:35:16;9.23;;;4.10;;
73023;SDS011;61199;47.526;8.538;2023-03-23T00:37:42;7.23;;;4.23;;
73023;SDS011;61199;47.526;8.538;2023-03-23T00:40:09;7.60;;;4.00;;
73023;SDS011;61199;47.526;8.538;2023-03-23T00:42:35;7.33;;;3.90;;
73023;SDS011;61199;47.526;8.538;2023-03-23T00:45:01;7.77;;;4.33;;
73023;SDS011;61199;47.526;8.538;2023-03-23T00:47:27;7.33;;;4.53;;
73023;SDS011;61199;47.526;8.538;2023-03-23T00:49:53;10.00;;;4.50;;
73023;SDS011;61199;47.526;8.538;2023-03-23T00:52:20;7.33;;;4.20;;
73023;SDS011;61199;47.526;8.538;2023-03-23T00:54:46;7.30;;;4.30;;
73023;SDS011;61199;47.526;8.538;2023-03-23T00:57:11;9.57;;;4.20;;
73023;SDS011;61199;47.526;8.538;2023-03-23T00:59:38;9.70;;;4.10;;
73023;SDS011;61199;47.526;8.538;2023-03-23T01:02:03;6.20;;;4.10;;
73023;SDS011;61199;47.526;8.538;2023-03-23T01:04:29;11.63;;;4.57;;
73023;SDS011;61199;47.526;8.538;2023-03-23T01:06:56;8.20;;;4.50;;
73023;SDS011;61199;47.526;8.538;2023-03-23T01:09:22;9.07;;;3.90;;
73023;SDS011;61199;47.526;8.538;2023-03-23T01:11:49;9.93;;;4.30;;
73023;SDS011;61199;47.526;8.538;2023-03-23T01:14:16;7.33;;;4.30;;
73023;SDS011;61199;47.526;8.538;2023-03-23T01:16:43;8.73;;;4.30;;
73023;SDS011;61199;47.526;8.538;2023-03-23T01:19:09;8.20;;;4.43;;
73023;SDS011;61199;47.526;8.538;2023-03-23T01:21:35;8.80;;;4.17;;
73023;SDS011;61199;47.526;8.538;2023-03-23T01:24:00;12.67;;;4.40;;
73023;SDS011;61199;47.526;8.538;2023-03-23T01:26:26;7.70;;;4.60;;
73023;SDS011;61199;47.526;8.538;2023-03-23T01:28:53;12.20;;;5.10;;
73023;SDS011;61199;47.526;8.538;2023-03-23T01:31:20;11.10;;;4.93;;
73023;SDS011;61199;47.526;8.538;2023-03-23T01:33:47;12.10;;;4.83;;
73023;SDS011;61199;47.526;8.538;2023-03-23T01:36:17;8.40;;;4.40;;
73023;SDS011;61199;47.526;8.538;2023-03-23T01:38:45;7.23;;;4.03;;
73023;SDS011;61199;47.526;8.538;2023-03-23T01:41:12;9.77;;;4.80;;
73023;SDS011;61199;47.526;8.538;2023-03-23T01:46:26;10.40;;;4.27;;
73023;SDS011;61199;47.526;8.538;2023-03-23T01:48:56;7.47;;;4.47;;
73023;SDS011;61199;47.526;8.538;2023-03-23T01:51:24;8.07;;;4.77;;
73023;SDS011;61199;47.526;8.538;2023-03-23T01:53:57;8.70;;;4.17;;
73023;SDS011;61199;47.526;8.538;2023-03-23T01:56:26;10.37;;;3.33;;
73023;SDS011;61199;47.526;8.538;2023-03-23T01:58:57;6.57;;;4.13;;
73023;SDS011;61199;47.526;8.538;2023-03-23T02:01:23;8.90;;;4.60;;
73023;SDS011;61199;47.526;8.538;2023-03-23T02:03:50;10.70;;;5.10;;
73023;SDS011;61199;47.526;8.538;2023-03-23T02:06:17;10.93;;;5.10;;
73023;SDS011;61199;47.526;8.538;2023-03-23T02:08:43;7.63;;;4.47;;
73023;SDS011;61199;47.526;8.538;2023-03-23T02:11:17;6.90;;;4.40;;
73023;SDS011;61199;47.526;8.538;2023-03-23T02:13:44;7.67;;;4.83;;
73023;SDS011;61199;47.526;8.538;2023-03-23T02:16:14;10.13;;;4.70;;
73023;SDS011;61199;47.526;8.538;2023-03-23T02:18:50;8.37;;;4.93;;
73023;SDS011;61199;47.526;8.538;2023-03-23T02:21:45;9.73;;;4.73;;
73023;SDS011;61199;47.526;8.538;2023-03-23T02:24:42;7.17;;;4.70;;
73023;SDS011;61199;47.526;8.538;2023-03-23T02:33:28;9.03;;;5.03;;
73023;SDS011;61199;47.526;8.538;2023-03-23T02:36:05;8.03;;;4.60;;
73023;SDS011;61199;47.526;8.538;2023-03-23T02:38:36;7.67;;;4.57;;
73023;SDS011;61199;47.526;8.538;2023-03-23T02:41:08;8.23;;;4.50;;
73023;SDS011;61199;47.526;8.538;2023-03-23T02:43:38;9.30;;;4.43;;
73023;SDS011;61199;47.526;8.538;2023-03-23T02:46:08;9.53;;;4.50;;
73023;SDS011;61199;47.526;8.538;2023-03-23T02:48:36;5.57;;;3.90;;
73023;SDS011;61199;47.526;8.538;2023-03-23T02:51:05;8.03;;;4.87;;
73023;SDS011;61199;47.526;8.538;2023-03-23T02:53:34;12.27;;;4.97;;
73023;SDS011;61199;47.526;8.538;2023-03-23T02:56:02;9.63;;;4.13;;
73023;SDS011;61199;47.526;8.538;2023-03-23T02:58:30;17.27;;;4.10;;
73023;SDS011;61199;47.526;8.538;2023-03-23T03:00:56;9.77;;;5.47;;
73023;SDS011;61199;47.526;8.538;2023-03-23T03:03:26;6.90;;;4.50;;
73023;SDS011;61199;47.526;8.538;2023-03-23T03:11:20;6.00;;;4.20;;
73023;SDS011;61199;47.526;8.538;2023-03-23T03:13:59;11.20;;;4.50;;
73023;SDS011;61199;47.526;8.538;2023-03-23T03:16:31;5.63;;;3.50;;
73023;SDS011;61199;47.526;8.538;2023-03-23T03:19:04;13.30;;;4.00;;
73023;SDS011;61199;47.526;8.538;2023-03-23T03:21:37;12.13;;;4.60;;
73023;SDS011;61199;47.526;8.538;2023-03-23T03:24:07;6.57;;;3.60;;
73023;SDS011;61199;47.526;8.538;2023-03-23T03:26:36;8.97;;;3.87;;
73023;SDS011;61199;47.526;8.538;2023-03-23T03:29:04;6.87;;;4.10;;
73023;SDS011;61199;47.526;8.538;2023-03-23T03:31:32;8.20;;;4.30;;
73023;SDS011;61199;47.526;8.538;2023-03-23T03:34:01;6.87;;;3.20;;
73023;SDS011;61199;47.526;8.538;2023-03-23T03:36:30;6.63;;;4.07;;
73023;SDS011;61199;47.526;8.538;2023-03-23T03:39:00;7.53;;;3.73;;
73023;SDS011;61199;47.526;8.538;2023-03-23T03:41:32;10.60;;;3.67;;
73023;SDS011;61199;47.526;8.538;2023-03-23T03:43:58;4.70;;;3.37;;
73023;SDS011;61199;47.526;8.538;2023-03-23T03:46:24;4.40;;;3.40;;
73023;SDS011;61199;47.526;8.538;2023-03-23T03:48:52;4.00;;;3.00;;
73023;SDS011;61199;47.526;8.538;2023-03-23T03:51:18;9.57;;;3.90;;
73023;SDS011;61199;47.526;8.538;2023-03-23T03:53:43;6.50;;;4.10;;
73023;SDS011;61199;47.526;8.538;2023-03-23T03:56:08;6.73;;;3.60;;
73023;SDS011;61199;47.526;8.538;2023-03-23T03:58:34;6.60;;;3.60;;
73023;SDS011;61199;47.526;8.538;2023-03-23T04:01:01;6.63;;;4.30;;
73023;SDS011;61199;47.526;8.538;2023-03-23T04:03:27;7.57;;;4.00;;
73023;SDS011;61199;47.526;8.538;2023-03-23T04:05:55;6.63;;;3.67;;
73023;SDS011;61199;47.526;8.538;2023-03-23T04:08:24;10.97;;;4.20;;
73023;SDS011;61199;47.526;8.538;2023-03-23T04:10:51;5.00;;;3.30;;
73023;SDS011;61199;47.526;8.538;2023-03-23T04:13:18;5.73;;;3.93;;
73023;SDS011;61199;47.526;8.538;2023-03-23T04:15:45;9.30;;;4.50;;
73023;SDS011;61199;47.526;8.538;2023-03-23T04:18:11;11.70;;;3.30;;
73023;SDS011;61199;47.526;8.538;2023-03-23T04:20:40;6.57;;;3.97;;
73023;SDS011;61199;47.526;8.538;2023-03-23T04:23:06;9.50;;;4.20;;
73023;SDS011;61199;47.526;8.538;2023-03-23T04:25:32;7.10;;;3.50;;
73023;SDS011;61199;47.526;8.538;2023-03-23T04:27:58;7.60;;;3.30;;
73023;SDS011;61199;47.526;8.538;2023-03-23T04:30:26;11.30;;;4.97;;
73023;SDS011;61199;47.526;8.538;2023-03-23T04:32:54;7.00;;;3.60;;
73023;SDS011;61199;47.526;8.538;2023-03-23T04:35:20;5.90;;;3.60;;
73023;SDS011;61199;47.526;8.538;2023-03-23T04:37:47;6.13;;;3.33;;
73023;SDS011;61199;47.526;8.538;2023-03-23T04:40:13;9.87;;;4.00;;
73023;SDS011;61199;47.526;8.538;2023-03-23T04:42:40;11.50;;;3.90;;
73023;SDS011;61199;47.526;8.538;2023-03-23T04:45:10;8.23;;;3.53;;
73023;SDS011;61199;47.526;8.538;2023-03-23T04:47:38;6.40;;;3.90;;
73023;SDS011;61199;47.526;8.538;2023-03-23T04:50:10;10.47;;;3.40;;
73023;SDS011;61199;47.526;8.538;2023-03-23T04:52:37;7.83;;;3.60;;
73023;SDS011;61199;47.526;8.538;2023-03-23T04:55:05;5.07;;;3.70;;
73023;SDS011;61199;47.526;8.538;2023-03-23T04:57:32;4.17;;;2.90;;
73023;SDS011;61199;47.526;8.538;2023-03-23T04:59:58;4.80;;;3.17;;
73023;SDS011;61199;47.526;8.538;2023-03-23T05:02:24;8.33;;;5.10;;
73023;SDS011;61199;47.526;8.538;2023-03-23T05:04:50;5.93;;;3.57;;
73023;SDS011;61199;47.526;8.538;2023-03-23T05:07:16;4.47;;;3.00;;
73023;SDS011;61199;47.526;8.538;2023-03-23T05:09:41;4.30;;;2.90;;
73023;SDS011;61199;47.526;8.538;2023-03-23T05:12:07;5.30;;;3.07;;
73023;SDS011;61199;47.526;8.538;2023-03-23T05:14:34;9.03;;;3.67;;
73023;SDS011;61199;47.526;8.538;2023-03-23T05:17:00;7.80;;;3.30;;
73023;SDS011;61199;47.526;8.538;2023-03-23T05:19:26;5.13;;;3.40;;
73023;SDS011;61199;47.526;8.538;2023-03-23T05:21:53;6.20;;;3.17;;
73023;SDS011;61199;47.526;8.538;2023-03-23T05:24:19;5.10;;;3.23;;
73023;SDS011;61199;47.526;8.538;2023-03-23T05:26:44;7.70;;;3.30;;
73023;SDS011;61199;47.526;8.538;2023-03-23T05:29:13;6.50;;;3.80;;
73023;SDS011;61199;47.526;8.538;2023-03-23T05:31:39;8.57;;;2.93;;
73023;SDS011;61199;47.526;8.538;2023-03-23T05:34:05;6.90;;;3.27;;
73023;SDS011;61199;47.526;8.538;2023-03-23T05:36:30;5.40;;;2.80;;
73023;SDS011;61199;47.526;8.538;2023-03-23T05:38:55;5.27;;;3.23;;
73023;SDS011;61199;47.526;8.538;2023-03-23T05:41:21;4.50;;;2.80;;
73023;SDS011;61199;47.526;8.538;2023-03-23T05:43:48;7.73;;;3.00;;
73023;SDS011;61199;47.526;8.538;2023-03-23T05:46:13;7.30;;;2.80;;
73023;SDS011;61199;47.526;8.538;2023-03-23T05:48:39;3.60;;;2.50;;
73023;SDS011;61199;47.526;8.538;2023-03-23T05:51:05;5.63;;;2.60;;
73023;SDS011;61199;47.526;8.538;2023-03-23T05:53:30;7.13;;;3.13;;
73023;SDS011;61199;47.526;8.538;2023-03-23T05:55:59;5.60;;;3.20;;
73023;SDS011;61199;47.526;8.538;2023-03-23T05:58:25;4.10;;;2.60;;
73023;SDS011;61199;47.526;8.538;2023-03-23T06:00:51;6.20;;;3.30;;
73023;SDS011;61199;47.526;8.538;2023-03-23T06:03:16;10.77;;;3.13;;
73023;SDS011;61199;47.526;8.538;2023-03-23T06:05:42;5.30;;;3.53;;
73023;SDS011;61199;47.526;8.538;2023-03-23T06:08:11;4.90;;;2.93;;
73023;SDS011;61199;47.526;8.538;2023-03-23T06:10:37;4.40;;;2.73;;
73023;SDS011;61199;47.526;8.538;2023-03-23T06:13:03;8.87;;;3.33;;
73023;SDS011;61199;47.526;8.538;2023-03-23T06:15:30;5.83;;;3.27;;
73023;SDS011;61199;47.526;8.538;2023-03-23T06:18:03;6.00;;;2.97;;
73023;SDS011;61199;47.526;8.538;2023-03-23T06:20:30;4.77;;;2.70;;
73023;SDS011;61199;47.526;8.538;2023-03-23T06:22:56;8.43;;;3.50;;
73023;SDS011;61199;47.526;8.538;2023-03-23T06:25:21;6.53;;;2.90;;
73023;SDS011;61199;47.526;8.538;2023-03-23T06:27:47;7.90;;;3.00;;
73023;SDS011;61199;47.526;8.538;2023-03-23T06:30:13;7.87;;;3.10;;
73023;SDS011;61199;47.526;8.538;2023-03-23T06:32:40;5.60;;;3.03;;
73023;SDS011;61199;47.526;8.538;2023-03-23T06:35:06;4.07;;;2.30;;
73023;SDS011;61199;47.526;8.538;2023-03-23T06:37:34;7.43;;;2.73;;
73023;SDS011;61199;47.526;8.538;2023-03-23T06:40:00;6.80;;;2.73;;
73023;SDS011;61199;47.526;8.538;2023-03-23T06:42:25;3.63;;;2.67;;
73023;SDS011;61199;47.526;8.538;2023-03-23T06:44:51;5.47;;;2.60;;
73023;SDS011;61199;47.526;8.538;2023-03-23T06:47:17;5.30;;;2.47;;
73023;SDS011;61199;47.526;8.538;2023-03-23T06:49:42;7.47;;;2.50;;
73023;SDS011;61199;47.526;8.538;2023-03-23T06:52:08;4.70;;;2.43;;
73023;SDS011;61199;47.526;8.538;2023-03-23T06:54:33;4.23;;;2.23;;
73023;SDS011;61199;47.526;8.538;2023-03-23T06:56:59;4.13;;;2.20;;
73023;SDS011;61199;47.526;8.538;2023-03-23T06:59:24;5.47;;;2.00;;
73023;SDS011;61199;47.526;8.538;2023-03-23T07:01:49;5.27;;;2.33;;
73023;SDS011;61199;47.526;8.538;2023-03-23T07:04:15;4.50;;;2.57;;
73023;SDS011;61199;47.526;8.538;2023-03-23T07:06:41;3.70;;;2.10;;
73023;SDS011;61199;47.526;8.538;2023-03-23T07:09:06;5.00;;;2.43;;
73023;SDS011;61199;47.526;8.538;2023-03-23T07:11:32;3.43;;;2.50;;
73023;SDS011;61199;47.526;8.538;2023-03-23T07:13:57;6.30;;;2.10;;
73023;SDS011;61199;47.526;8.538;2023-03-23T07:16:23;7.23;;;2.50;;
73023;SDS011;61199;47.526;8.538;2023-03-23T07:18:48;4.00;;;2.00;;
73023;SDS011;61199;47.526;8.538;2023-03-23T07:21:14;6.33;;;2.80;;
73023;SDS011;61199;47.526;8.538;2023-03-23T07:23:39;10.10;;;2.13;;
73023;SDS011;61199;47.526;8.538;2023-03-23T07:26:05;4.03;;;2.10;;
73023;SDS011;61199;47.526;8.538;2023-03-23T07:28:31;5.53;;;2.03;;
73023;SDS011;61199;47.526;8.538;2023-03-23T07:30:57;4.10;;;2.10;;
73023;SDS011;61199;47.526;8.538;2023-03-23T07:33:22;6.77;;;2.00;;
73023;SDS011;61199;47.526;8.538;2023-03-23T07:35:48;4.43;;;2.50;;
73023;SDS011;61199;47.526;8.538;2023-03-23T07:38:13;4.97;;;2.90;;
73023;SDS011;61199;47.526;8.538;2023-03-23T07:40:39;4.57;;;3.20;;
73023;SDS011;61199;47.526;8.538;2023-03-23T07:43:06;10.83;;;2.60;;
73023;SDS011;61199;47.526;8.538;2023-03-23T07:45:32;4.40;;;2.37;;
73023;SDS011;61199;47.526;8.538;2023-03-23T07:47:57;4.50;;;2.93;;
73023;SDS011;61199;47.526;8.538;2023-03-23T07:50:23;3.37;;;2.40;;
73023;SDS011;61199;47.526;8.538;2023-03-23T07:52:53;4.40;;;2.00;;
73023;SDS011;61199;47.526;8.538;2023-03-23T07:55:20;9.00;;;2.90;;
73023;SDS011;61199;47.526;8.538;2023-03-23T07:57:47;8.63;;;2.63;;
73023;SDS011;61199;47.526;8.538;2023-03-23T08:00:17;5.07;;;2.33;;
73023;SDS011;61199;47.526;8.538;2023-03-23T08:02:45;9.50;;;2.43;;
73023;SDS011;61199;47.526;8.538;2023-03-23T08:05:18;5.60;;;3.00;;
73023;SDS011;61199;47.526;8.538;2023-03-23T08:07:45;4.90;;;1.87;;
73023;SDS011;61199;47.526;8.538;2023-03-23T08:10:12;4.00;;;2.30;;
73023;SDS011;61199;47.526;8.538;2023-03-23T08:12:40;5.53;;;2.40;;
73023;SDS011;61199;47.526;8.538;2023-03-23T08:15:07;5.10;;;3.03;;
73023;SDS011;61199;47.526;8.538;2023-03-23T08:17:34;4.57;;;2.00;;
73023;SDS011;61199;47.526;8.538;2023-03-23T08:20:00;4.90;;;2.60;;
73023;SDS011;61199;47.526;8.538;2023-03-23T08:22:26;3.23;;;2.07;;
73023;SDS011;61199;47.526;8.538;2023-03-23T08:24:54;4.77;;;2.10;;
73023;SDS011;61199;47.526;8.538;2023-03-23T08:27:19;6.13;;;2.37;;
73023;SDS011;61199;47.526;8.538;2023-03-23T08:29:45;7.57;;;2.33;;
73023;SDS011;61199;47.526;8.538;2023-03-23T08:32:11;7.23;;;2.43;;
73023;SDS011;61199;47.526;8.538;2023-03-23T08:34:37;10.90;;;2.70;;
73023;SDS011;61199;47.526;8.538;2023-03-23T08:37:03;5.80;;;1.97;;
73023;SDS011;61199;47.526;8.538;2023-03-23T08:39:29;4.27;;;1.90;;
73023;SDS011;61199;47.526;8.538;2023-03-23T08:41:55;5.17;;;2.13;;
73023;SDS011;61199;47.526;8.538;2023-03-23T08:44:21;4.70;;;2.53;;
73023;SDS011;61199;47.526;8.538;2023-03-23T08:46:46;7.97;;;2.30;;
73023;SDS011;61199;47.526;8.538;2023-03-23T08:49:12;6.67;;;2.70;;
73023;SDS011;61199;47.526;8.538;2023-03-23T08:51:37;8.53;;;2.33;;
73023;SDS011;61199;47.526;8.538;2023-03-23T08:54:03;4.27;;;2.70;;
73023;SDS011;61199;47.526;8.538;2023-03-23T08:56:28;8.80;;;2.87;;
73023;SDS011;61199;47.526;8.538;2023-03-23T08:58:53;8.83;;;2.67;;
73023;SDS011;61199;47.526;8.538;2023-03-23T09:01:19;4.00;;;2.33;;
73023;SDS011;61199;47.526;8.538;2023-03-23T09:03:45;13.53;;;2.33;;
73023;SDS011;61199;47.526;8.538;2023-03-23T09:06:10;12.23;;;1.90;;
73023;SDS011;61199;47.526;8.538;2023-03-23T09:08:37;7.53;;;2.60;;
73023;SDS011;61199;47.526;8.538;2023-03-23T09:11:07;3.67;;;2.10;;
73023;SDS011;61199;47.526;8.538;2023-03-23T09:13:35;4.93;;;2.30;;
73023;SDS011;61199;47.526;8.538;2023-03-23T09:16:01;5.63;;;2.30;;
73023;SDS011;61199;47.526;8.538;2023-03-23T09:18:28;2.93;;;1.77;;
73023;SDS011;61199;47.526;8.538;2023-03-23T09:20:54;3.27;;;2.10;;
73023;SDS011;61199;47.526;8.538;2023-03-23T09:23:19;7.30;;;2.40;;
73023;SDS011;61199;47.526;8.538;2023-03-23T09:25:45;5.37;;;2.20;;
73023;SDS011;61199;47.526;8.538;2023-03-23T09:28:12;3.40;;;2.03;;
73023;SDS011;61199;47.526;8.538;2023-03-23T09:30:38;16.00;;;2.63;;
73023;SDS011;61199;47.526;8.538;2023-03-23T09:33:05;4.73;;;2.40;;
73023;SDS011;61199;47.526;8.538;2023-03-23T09:35:33;4.63;;;2.87;;
73023;SDS011;61199;47.526;8.538;2023-03-23T09:38:00;3.20;;;2.07;;
73023;SDS011;61199;47.526;8.538;2023-03-23T09:40:37;3.97;;;2.33;;
73023;SDS011;61199;47.526;8.538;2023-03-23T09:43:16;3.63;;;2.37;;
73023;SDS011;61199;47.526;8.538;2023-03-23T09:48:40;6.60;;;2.47;;
73023;SDS011;61199;47.526;8.538;2023-03-23T09:56:38;5.53;;;2.33;;
73023;SDS011;61199;47.526;8.538;2023-03-23T09:59:23;5.50;;;2.93;;
73023;SDS011;61199;47.526;8.538;2023-03-23T10:02:02;5.80;;;2.60;;
73023;SDS011;61199;47.526;8.538;2023-03-23T10:04:39;3.97;;;2.53;;
73023;SDS011;61199;47.526;8.538;2023-03-23T10:07:11;8.03;;;2.50;;
73023;SDS011;61199;47.526;8.538;2023-03-23T10:09:39;3.97;;;2.40;;
73023;SDS011;61199;47.526;8.538;2023-03-23T10:18:20;4.60;;;2.23;;
73023;SDS011;61199;47.526;8.538;2023-03-23T10:20:48;3.37;;;2.17;;
73023;SDS011;61199;47.526;8.538;2023-03-23T10:25:59;5.53;;;2.40;;
73023;SDS011;61199;47.526;8.538;2023-03-23T10:28:45;4.20;;;2.33;;
73023;SDS011;61199;47.526;8.538;2023-03-23T10:31:18;3.07;;;2.20;;
73023;SDS011;61199;47.526;8.538;2023-03-23T10:33:49;5.63;;;2.73;;
73023;SDS011;61199;47.526;8.538;2023-03-23T10:36:25;5.50;;;2.57;;
73023;SDS011;61199;47.526;8.538;2023-03-23T10:38:59;5.70;;;2.30;;
73023;SDS011;61199;47.526;8.538;2023-03-23T10:41:29;8.53;;;2.33;;
73023;SDS011;61199;47.526;8.538;2023-03-23T10:43:56;5.20;;;1.90;;
73023;SDS011;61199;47.526;8.538;2023-03-23T10:49:53;6.10;;;2.20;;
73023;SDS011;61199;47.526;8.538;2023-03-23T10:57:31;5.30;;;2.67;;
73023;SDS011;61199;47.526;8.538;2023-03-23T11:02:40;9.77;;;2.60;;
73023;SDS011;61199;47.526;8.538;2023-03-23T11:07:54;9.37;;;2.67;;
73023;SDS011;61199;47.526;8.538;2023-03-23T11:10:26;3.00;;;2.10;;
73023;SDS011;61199;47.526;8.538;2023-03-23T11:13:03;3.97;;;2.10;;
73023;SDS011;61199;47.526;8.538;2023-03-23T11:15:34;5.67;;;2.67;;
73023;SDS011;61199;47.526;8.538;2023-03-23T11:18:04;7.53;;;2.70;;
73023;SDS011;61199;47.526;8.538;2023-03-23T11:20:37;4.50;;;2.40;;
73023;SDS011;61199;47.526;8.538;2023-03-23T11:23:13;6.37;;;2.83;;
73023;SDS011;61199;47.526;8.538;2023-03-23T11:25:57;3.17;;;2.10;;
73023;SDS011;61199;47.526;8.538;2023-03-23T11:28:26;6.03;;;2.60;;
73023;SDS011;61199;47.526;8.538;2023-03-23T11:30:55;7.50;;;2.93;;
73023;SDS011;61199;47.526;8.538;2023-03-23T11:33:22;6.00;;;3.20;;
73023;SDS011;61199;47.526;8.538;2023-03-23T11:35:50;7.87;;;2.90;;
73023;SDS011;61199;47.526;8.538;2023-03-23T11:38:19;5.73;;;2.77;;
73023;SDS011;61199;47.526;8.538;2023-03-23T11:40:50;5.17;;;2.57;;
73023;SDS011;61199;47.526;8.538;2023-03-23T11:43:20;5.87;;;3.00;;
73023;SDS011;61199;47.526;8.538;2023-03-23T11:45:52;4.00;;;2.50;;
73023;SDS011;61199;47.526;8.538;2023-03-23T11:51:38;7.00;;;2.90;;
73023;SDS011;61199;47.526;8.538;2023-03-23T11:56:58;6.30;;;2.90;;
73023;SDS011;61199;47.526;8.538;2023-03-23T11:59:31;5.90;;;2.20;;
73023;SDS011;61199;47.526;8.538;2023-03-23T12:10:47;8.30;;;2.90;;
73023;SDS011;61199;47.526;8.538;2023-03-23T12:24:20;6.00;;;2.40;;
73023;SDS011;61199;47.526;8.538;2023-03-23T12:26:50;3.77;;;2.33;;
73023;SDS011;61199;47.526;8.538;2023-03-23T12:29:27;4.07;;;2.37;;
73023;SDS011;61199;47.526;8.538;2023-03-23T12:37:34;11.40;;;2.90;;
73023;SDS011;61199;47.526;8.538;2023-03-23T12:42:59;4.57;;;2.10;;
73023;SDS011;61199;47.526;8.538;2023-03-23T12:48:42;5.50;;;2.60;;
73023;SDS011;61199;47.526;8.538;2023-03-23T12:51:32;5.63;;;2.83;;
73023;SDS011;61199;47.526;8.538;2023-03-23T12:56:52;4.47;;;2.40;;
73023;SDS011;61199;47.526;8.538;2023-03-23T13:02:06;5.70;;;2.27;;
73023;SDS011;61199;47.526;8.538;2023-03-23T13:04:40;7.00;;;3.20;;
73023;SDS011;61199;47.526;8.538;2023-03-23T13:07:10;6.20;;;2.43;;
73023;SDS011;61199;47.526;8.538;2023-03-23T13:09:52;4.97;;;2.67;;
73023;SDS011;61199;47.526;8.538;2023-03-23T13:12:23;4.07;;;2.33;;
73023;SDS011;61199;47.526;8.538;2023-03-23T13:15:08;3.50;;;2.20;;
73023;SDS011;61199;47.526;8.538;2023-03-23T13:17:58;7.30;;;2.90;;
73023;SDS011;61199;47.526;8.538;2023-03-23T13:21:02;5.00;;;2.50;;
73023;SDS011;61199;47.526;8.538;2023-03-23T13:23:39;5.43;;;2.70;;
73023;SDS011;61199;47.526;8.538;2023-03-23T13:26:09;7.63;;;1.93;;
73023;SDS011;61199;47.526;8.538;2023-03-23T13:28:53;5.20;;;2.80;;
73023;SDS011;61199;47.526;8.538;2023-03-23T13:31:32;10.37;;;2.43;;
73023;SDS011;61199;47.526;8.538;2023-03-23T13:34:03;3.53;;;2.30;;
73023;SDS011;61199;47.526;8.538;2023-03-23T13:39:05;5.20;;;2.50;;
73023;SDS011;61199;47.526;8.538;2023-03-23T13:41:45;4.37;;;2.90;;
73023;SDS011;61199;47.526;8.538;2023-03-23T13:44:24;6.27;;;2.37;;
73023;SDS011;61199;47.526;8.538;2023-03-23T13:47:05;4.03;;;2.07;;
73023;SDS011;61199;47.526;8.538;2023-03-23T13:49:59;6.43;;;2.40;;
73023;SDS011;61199;47.526;8.538;2023-03-23T13:52:37;5.33;;;2.83;;
73023;SDS011;61199;47.526;8.538;2023-03-23T13:57:56;5.50;;;2.57;;
73023;SDS011;61199;47.526;8.538;2023-03-23T14:11:25;9.63;;;2.80;;
73023;SDS011;61199;47.526;8.538;2023-03-23T14:13:43;6.50;;;2.80;;
73023;SDS011;61199;47.526;8.538;2023-03-23T14:16:43;6.33;;;2.20;;
73023;SDS011;61199;47.526;8.538;2023-03-23T14:19:15;6.60;;;2.40;;
73023;SDS011;61199;47.526;8.538;2023-03-23T14:21:49;5.00;;;2.40;;
73023;SDS011;61199;47.526;8.538;2023-03-23T14:24:20;7.30;;;2.60;;
73023;SDS011;61199;47.526;8.538;2023-03-23T14:26:48;7.00;;;3.00;;
73023;SDS011;61199;47.526;8.538;2023-03-23T14:29:17;8.23;;;2.23;;
73023;SDS011;61199;47.526;8.538;2023-03-23T14:31:43;5.83;;;2.60;;
73023;SDS011;61199;47.526;8.538;2023-03-23T14:34:12;3.97;;;2.30;;
73023;SDS011;61199;47.526;8.538;2023-03-23T14:36:40;4.90;;;2.33;;
73023;SDS011;61199;47.526;8.538;2023-03-23T14:39:14;3.90;;;2.43;;
73023;SDS011;61199;47.526;8.538;2023-03-23T14:41:40;7.43;;;2.60;;
73023;SDS011;61199;47.526;8.538;2023-03-23T14:44:08;4.67;;;2.50;;
73023;SDS011;61199;47.526;8.538;2023-03-23T14:46:39;11.23;;;2.37;;
73023;SDS011;61199;47.526;8.538;2023-03-23T14:49:11;4.80;;;2.33;;
73023;SDS011;61199;47.526;8.538;2023-03-23T14:51:50;9.67;;;2.43;;
73023;SDS011;61199;47.526;8.538;2023-03-23T14:54:20;4.43;;;2.10;;
73023;SDS011;61199;47.526;8.538;2023-03-23T14:56:51;10.43;;;2.30;;
73023;SDS011;61199;47.526;8.538;2023-03-23T14:59:17;5.63;;;2.40;;
73023;SDS011;61199;47.526;8.538;2023-03-23T15:01:42;5.17;;;2.47;;
73023;SDS011;61199;47.526;8.538;2023-03-23T15:04:20;3.90;;;2.37;;
73023;SDS011;61199;47.526;8.538;2023-03-23T15:06:54;4.30;;;2.17;;
73023;SDS011;61199;47.526;8.538;2023-03-23T15:09:23;3.83;;;1.97;;
73023;SDS011;61199;47.526;8.538;2023-03-23T15:11:51;3.80;;;2.60;;
73023;SDS011;61199;47.526;8.538;2023-03-23T15:14:22;6.20;;;2.40;;
73023;SDS011;61199;47.526;8.538;2023-03-23T15:16:51;3.03;;;2.13;;
73023;SDS011;61199;47.526;8.538;2023-03-23T15:19:24;9.03;;;2.57;;
73023;SDS011;61199;47.526;8.538;2023-03-23T15:21:53;5.33;;;2.60;;
73023;SDS011;61199;47.526;8.538;2023-03-23T15:26:49;9.37;;;2.20;;
73023;SDS011;61199;47.526;8.538;2023-03-23T15:29:16;6.47;;;2.23;;
73023;SDS011;61199;47.526;8.538;2023-03-23T15:31:46;5.20;;;2.47;;
73023;SDS011;61199;47.526;8.538;2023-03-23T15:34:15;4.70;;;2.00;;
73023;SDS011;61199;47.526;8.538;2023-03-23T15:36:45;3.60;;;1.97;;
73023;SDS011;61199;47.526;8.538;2023-03-23T15:39:11;4.53;;;2.50;;
73023;SDS011;61199;47.526;8.538;2023-03-23T15:41:45;7.00;;;2.60;;
73023;SDS011;61199;47.526;8.538;2023-03-23T15:44:20;3.63;;;2.33;;
73023;SDS011;61199;47.526;8.538;2023-03-23T15:46:49;3.70;;;2.57;;
73023;SDS011;61199;47.526;8.538;2023-03-23T15:49:16;4.60;;;2.20;;
73023;SDS011;61199;47.526;8.538;2023-03-23T15:51:41;6.67;;;2.97;;
73023;SDS011;61199;47.526;8.538;2023-03-23T15:54:08;3.40;;;2.27;;
73023;SDS011;61199;47.526;8.538;2023-03-23T15:56:37;4.17;;;2.60;;
73023;SDS011;61199;47.526;8.538;2023-03-23T15:59:03;5.50;;;2.73;;
73023;SDS011;61199;47.526;8.538;2023-03-23T16:01:29;6.30;;;2.60;;
73023;SDS011;61199;47.526;8.538;2023-03-23T16:03:58;5.53;;;2.40;;
73023;SDS011;61199;47.526;8.538;2023-03-23T16:06:27;5.67;;;2.70;;
73023;SDS011;61199;47.526;8.538;2023-03-23T16:08:56;5.33;;;2.17;;
73023;SDS011;61199;47.526;8.538;2023-03-23T16:11:24;6.20;;;2.57;;
73023;SDS011;61199;47.526;8.538;2023-03-23T16:13:52;6.40;;;2.30;;
73023;SDS011;61199;47.526;8.538;2023-03-23T16:19:02;6.20;;;2.40;;
73023;SDS011;61199;47.526;8.538;2023-03-23T16:21:29;5.17;;;2.27;;
73023;SDS011;61199;47.526;8.538;2023-03-23T16:23:55;5.30;;;2.60;;
73023;SDS011;61199;47.526;8.538;2023-03-23T16:26:22;3.27;;;2.10;;
73023;SDS011;61199;47.526;8.538;2023-03-23T16:28:49;3.60;;;2.03;;
73023;SDS011;61199;47.526;8.538;2023-03-23T16:31:20;5.20;;;2.43;;
73023;SDS011;61199;47.526;8.538;2023-03-23T16:33:47;11.70;;;2.80;;
73023;SDS011;61199;47.526;8.538;2023-03-23T16:36:13;3.63;;;1.90;;
73023;SDS011;61199;47.526;8.538;2023-03-23T16:38:40;4.50;;;2.20;;
73023;SDS011;61199;47.526;8.538;2023-03-23T16:41:15;5.20;;;2.20;;
73023;SDS011;61199;47.526;8.538;2023-03-23T16:43:41;3.80;;;2.00;;
73023;SDS011;61199;47.526;8.538;2023-03-23T16:46:08;4.90;;;2.50;;